createdAt,value
2022-10-07T00:03:26.828Z,3.03
2022-10-07T00:08:35.867Z,2.77
2022-10-07T00:13:45.690Z,3.00
2022-10-07T00:18:56.329Z,2.60
2022-10-07T00:24:04.984Z,2.87
2022-10-07T00:29:12.614Z,3.10
2022-10-07T00:34:19.809Z,2.87
2022-10-07T00:39:28.982Z,3.10
2022-10-07T00:44:39.793Z,3.10
2022-10-07T00:49:48.239Z,3.20
2022-10-07T00:54:57.819Z,2.97
2022-10-07T01:00:08.662Z,3.47
2022-10-07T01:05:16.485Z,3.00
2022-10-07T01:10:24.790Z,2.97
2022-10-07T01:15:34.855Z,2.90
2022-10-07T01:20:46.730Z,3.13
2022-10-07T01:25:56.776Z,3.40
2022-10-07T01:31:07.790Z,3.20
2022-10-07T01:36:18.295Z,3.27
2022-10-07T01:41:26.035Z,3.10
2022-10-07T01:46:35.562Z,3.00
2022-10-07T01:51:43.777Z,3.20
2022-10-07T01:56:53.868Z,3.60
2022-10-07T02:02:04.598Z,3.13
2022-10-07T02:07:10.729Z,3.13
2022-10-07T02:12:20.509Z,3.27
2022-10-07T02:17:29.859Z,3.27
2022-10-07T02:22:40.077Z,2.90
2022-10-07T02:27:50.559Z,3.17
2022-10-07T02:33:03.480Z,3.10
2022-10-07T02:38:14.527Z,2.90
2022-10-07T02:43:24.461Z,2.60
2022-10-07T02:48:34.471Z,2.57
2022-10-07T02:53:42.391Z,2.80
2022-10-07T02:58:52.361Z,2.80
2022-10-07T03:04:00.473Z,2.60
2022-10-07T03:09:07.863Z,3.07
2022-10-07T03:14:15.919Z,3.17
2022-10-07T03:19:23.746Z,3.50
2022-10-07T03:24:32.267Z,2.97
2022-10-07T03:29:39.560Z,2.90
2022-10-07T03:34:47.003Z,3.00
2022-10-07T03:39:54.043Z,3.20
2022-10-07T03:45:03.476Z,3.03
2022-10-07T03:50:11.076Z,3.10
2022-10-07T03:55:18.291Z,3.20
2022-10-07T04:00:27.144Z,3.20
2022-10-07T04:05:37.856Z,3.10
2022-10-07T04:10:45.878Z,3.20
2022-10-07T04:15:53.570Z,3.00
2022-10-07T04:21:02.395Z,3.20
2022-10-07T04:26:12.966Z,3.13
2022-10-07T04:31:21.751Z,3.10
2022-10-07T04:36:30.373Z,2.80
2022-10-07T04:41:39.449Z,2.67
2022-10-07T04:46:49.191Z,2.90
2022-10-07T04:51:57.426Z,2.97
2022-10-07T04:57:06.325Z,2.90
2022-10-07T05:02:13.793Z,2.83
2022-10-07T05:07:22.031Z,2.93
2022-10-07T05:12:29.808Z,3.50
2022-10-07T05:17:37.551Z,2.80
2022-10-07T05:22:44.652Z,3.00
2022-10-07T05:27:54.329Z,3.00
2022-10-07T05:33:01.479Z,2.90
2022-10-07T05:38:09.318Z,3.23
2022-10-07T05:43:17.851Z,2.83
2022-10-07T05:48:25.015Z,3.00
2022-10-07T05:53:32.626Z,2.60
2022-10-07T05:58:40.330Z,3.30
2022-10-07T06:03:51.294Z,3.53
2022-10-07T06:09:00.538Z,3.23
2022-10-07T06:14:08.395Z,3.10
2022-10-07T06:19:17.341Z,2.77
2022-10-07T06:24:26.869Z,3.00
2022-10-07T06:29:34.709Z,2.90
2022-10-07T06:34:42.131Z,2.70
2022-10-07T06:39:50.167Z,2.80
2022-10-07T06:44:58.335Z,2.73
2022-10-07T06:50:07.759Z,2.47
2022-10-07T06:55:15.366Z,2.77
2022-10-07T07:00:23.067Z,2.90
2022-10-07T07:05:34.776Z,3.50
2022-10-07T07:10:45.148Z,2.90
2022-10-07T07:15:56.239Z,2.83
2022-10-07T07:21:06.949Z,2.50
2022-10-07T07:26:16.630Z,2.60
2022-10-07T07:31:25.875Z,2.90
2022-10-07T07:36:45.614Z,2.90
2022-10-07T07:41:53.409Z,2.87
2022-10-07T07:47:01.979Z,3.10
2022-10-07T07:52:10.746Z,2.87
2022-10-07T07:57:20.968Z,2.73
2022-10-07T08:02:28.371Z,3.13
2022-10-07T08:07:37.216Z,3.00
2022-10-07T08:12:44.876Z,2.47
2022-10-07T08:17:53.359Z,2.80
2022-10-07T08:23:00.608Z,2.80
2022-10-07T08:28:08.286Z,3.00
2022-10-07T08:33:16.579Z,2.70
2022-10-07T08:38:23.607Z,3.20
2022-10-07T08:43:30.977Z,2.97
2022-10-07T08:48:40.396Z,2.83
2022-10-07T08:53:51.709Z,3.30
2022-10-07T08:59:02.483Z,3.13
2022-10-07T09:04:12.974Z,2.80
2022-10-07T09:09:23.467Z,3.17
2022-10-07T09:14:33.619Z,2.80
2022-10-07T09:19:44.132Z,3.13
2022-10-07T09:24:54.771Z,3.20
2022-10-07T09:30:03.363Z,2.70
2022-10-07T09:35:13.870Z,3.00
2022-10-07T09:40:24.431Z,2.87
2022-10-07T09:45:35.292Z,2.40
2022-10-07T09:50:45.025Z,2.93
2022-10-07T09:55:55.633Z,2.90
2022-10-07T10:01:05.536Z,3.00
2022-10-07T10:06:14.684Z,2.80
2022-10-07T10:11:21.111Z,3.00
2022-10-07T10:16:32.816Z,2.90
2022-10-07T10:21:42.614Z,2.80
2022-10-07T10:26:57.226Z,2.53
2022-10-07T10:32:08.062Z,2.70
2022-10-07T10:37:18.946Z,2.80
2022-10-07T10:42:28.953Z,2.47
2022-10-07T10:47:39.446Z,2.73
2022-10-07T10:52:49.787Z,2.50
2022-10-07T10:58:00.712Z,2.90
2022-10-07T11:03:10.075Z,2.50
2022-10-07T11:08:18.450Z,2.53
2022-10-07T11:13:30.221Z,2.90
2022-10-07T11:18:41.793Z,2.53
2022-10-07T11:23:51.809Z,2.50
2022-10-07T11:29:02.633Z,2.60
2022-10-07T11:34:12.948Z,2.20
2022-10-07T11:39:20.695Z,2.40
2022-10-07T11:44:31.095Z,2.53
2022-10-07T11:49:41.487Z,2.10
2022-10-07T11:54:51.479Z,2.20
2022-10-07T12:00:02.017Z,2.30
2022-10-07T12:05:13.762Z,2.20
2022-10-07T12:10:21.778Z,2.30
2022-10-07T12:15:30.164Z,2.40
2022-10-07T12:20:40.315Z,1.90
2022-10-07T12:25:48.884Z,2.27
2022-10-07T12:31:00.376Z,2.20
2022-10-07T12:36:13.012Z,2.00
2022-10-07T12:41:25.604Z,2.07
2022-10-07T12:46:36.030Z,1.87
2022-10-07T12:51:45.981Z,1.73
2022-10-07T12:56:54.653Z,2.00
2022-10-07T13:02:03.996Z,2.10
2022-10-07T13:07:14.489Z,1.70
2022-10-07T13:12:27.702Z,1.73
2022-10-07T13:17:37.164Z,1.90
2022-10-07T13:22:48.262Z,1.70
2022-10-07T13:27:59.598Z,2.00
2022-10-07T13:33:11.705Z,1.70
2022-10-07T13:38:22.655Z,1.67
2022-10-07T13:43:33.508Z,1.70
2022-10-07T13:48:45.580Z,1.80
2022-10-07T13:53:56.385Z,1.83
2022-10-07T13:59:07.634Z,2.30
2022-10-07T14:04:16.036Z,1.90
2022-10-07T14:09:26.908Z,2.03
2022-10-07T14:14:36.878Z,1.97
2022-10-07T14:19:44.106Z,2.17
2022-10-07T14:24:55.106Z,2.03
2022-10-07T14:30:02.634Z,2.00
2022-10-07T14:35:14.367Z,2.00
2022-10-07T14:40:24.742Z,2.10
2022-10-07T14:45:32.288Z,1.83
2022-10-07T14:50:40.802Z,2.00
2022-10-07T14:55:48.522Z,2.03
2022-10-07T15:00:55.835Z,2.00
2022-10-07T15:06:03.277Z,1.93
2022-10-07T15:11:10.638Z,1.90
2022-10-07T15:16:20.825Z,2.13
2022-10-07T15:21:29.813Z,2.30
2022-10-07T15:26:36.956Z,2.07
2022-10-07T15:31:44.948Z,2.53
2022-10-07T15:36:52.081Z,2.27
2022-10-07T15:41:59.255Z,2.30
2022-10-07T15:47:06.797Z,2.00
2022-10-07T15:52:14.633Z,2.10
2022-10-07T15:57:24.099Z,2.27
2022-10-07T16:02:31.692Z,2.20
2022-10-07T16:07:39.309Z,2.30
2022-10-07T16:12:46.993Z,2.23
2022-10-07T16:17:57.970Z,2.20
2022-10-07T16:23:06.067Z,2.30
2022-10-07T16:28:14.892Z,2.43
2022-10-07T16:33:22.293Z,2.20
2022-10-07T16:38:32.745Z,2.30
2022-10-07T16:43:40.140Z,2.27
2022-10-07T16:48:49.265Z,2.10
2022-10-07T16:54:00.905Z,2.00
2022-10-07T16:59:12.015Z,2.23
2022-10-07T17:04:20.241Z,2.20
2022-10-07T17:09:27.568Z,2.27
2022-10-07T17:14:34.784Z,2.10
2022-10-07T17:19:41.892Z,2.20
2022-10-07T17:24:49.242Z,2.13
2022-10-07T17:29:56.774Z,2.43
2022-10-07T17:35:03.963Z,2.27
2022-10-07T17:40:11.429Z,2.30
2022-10-07T17:45:18.475Z,2.30
2022-10-07T17:50:25.985Z,2.10
2022-10-07T17:55:34.306Z,2.07
2022-10-07T18:00:41.512Z,2.30
2022-10-07T18:05:51.601Z,2.27
2022-10-07T18:10:58.783Z,2.20
2022-10-07T18:16:06.662Z,2.10
2022-10-07T18:21:14.418Z,2.20
2022-10-07T18:26:21.400Z,1.80
2022-10-07T18:31:28.859Z,2.10
2022-10-07T18:36:36.005Z,2.23
2022-10-07T18:41:43.186Z,2.10
2022-10-07T18:46:50.489Z,2.00
2022-10-07T18:51:57.396Z,2.03
2022-10-07T18:57:04.555Z,2.10
2022-10-07T19:02:12.571Z,2.20
2022-10-07T19:07:19.529Z,2.00
2022-10-07T19:12:28.646Z,2.27
2022-10-07T19:17:35.835Z,2.47
2022-10-07T19:22:44.341Z,2.20
2022-10-07T19:27:51.903Z,2.23
2022-10-07T19:32:58.897Z,2.60
2022-10-07T19:38:06.738Z,2.30
2022-10-07T19:43:16.220Z,2.40
2022-10-07T19:48:23.304Z,2.07
2022-10-07T19:53:33.288Z,2.13
2022-10-07T19:58:43.401Z,2.20
2022-10-07T20:03:55.409Z,2.27
2022-10-07T20:09:07.983Z,2.20
2022-10-07T20:14:19.825Z,2.37
2022-10-07T20:19:31.500Z,2.30
2022-10-07T20:24:38.707Z,2.43
2022-10-07T20:29:49.190Z,2.60
2022-10-07T20:34:57.290Z,2.50
2022-10-07T20:40:06.482Z,2.60
2022-10-07T20:45:13.489Z,2.70
2022-10-07T20:50:20.449Z,2.23
2022-10-07T20:55:30.985Z,2.50
2022-10-07T21:00:38.630Z,2.63
2022-10-07T21:05:46.026Z,2.63
2022-10-07T21:10:53.223Z,2.50
2022-10-07T21:16:01.954Z,3.03
2022-10-07T21:21:10.664Z,2.70
2022-10-07T21:26:20.139Z,2.80
2022-10-07T21:31:27.471Z,2.60
2022-10-07T21:36:35.057Z,3.03
2022-10-07T21:41:43.067Z,3.20
2022-10-07T21:46:50.514Z,2.80
2022-10-07T21:51:57.644Z,3.20
2022-10-07T21:57:05.311Z,3.30
2022-10-07T22:02:14.157Z,2.87
2022-10-07T22:07:22.812Z,2.80
2022-10-07T22:12:29.860Z,3.23
2022-10-07T22:17:37.116Z,2.90
2022-10-07T22:22:45.627Z,3.10
2022-10-07T22:27:53.307Z,2.93
2022-10-07T22:38:29.303Z,3.10
2022-10-07T22:43:39.213Z,3.20
2022-10-07T22:48:49.226Z,3.07
2022-10-07T22:59:24.588Z,3.13
2022-10-07T23:04:31.919Z,3.03
2022-10-07T23:09:40.365Z,2.80
2022-10-07T23:14:48.738Z,3.10
2022-10-07T23:19:55.689Z,2.70
2022-10-07T23:25:04.338Z,2.90
2022-10-07T23:30:11.932Z,2.90
2022-10-07T23:35:19.027Z,3.13
2022-10-07T23:40:27.373Z,2.90
2022-10-07T23:45:34.284Z,3.00
2022-10-07T23:50:44.532Z,2.80
2022-10-07T23:55:54.377Z,2.80
